Data for 12/19/2008

Time Sea-Level Adjusted Pressure Absolute Pressure Temperature Relative Humidity Dew Point   
(mb) (inHg) (mb) (inHg) (C) (F) (%) (C) (F)
00:05 1005 29.68 834 24.63 -4.4 24.1 53 -12.5 9.4
00:10 1005 29.68 834 24.63 -4.7 23.5 53 -12.9 8.7
00:15 1005 29.68 834 24.63 -4.7 23.6 49 -13.8 7.2
00:20 1005 29.68 834 24.63 -4.4 24.2 48 -13.8 7.1
00:25 1005 29.68 834 24.63 -4 24.9 49 -13.2 8.2
00:30 1005 29.68 834 24.63 -4.5 23.9 53 -12.6 9.3
00:35 1005 29.68 834 24.63 -4.9 23.1 50 -13.8 7.1
00:40 1005 29.68 834 24.63 -4.2 24.5 49 -13.3 8.1
00:45 1004 29.65 834 24.63 -3.6 25.5 46 -13.6 7.5
00:50 1005 29.68 834 24.63 -3.3 26 45 -13.7 7.3
00:55 1005 29.68 834 24.63 -3.3 26.1 46 -13.5 7.8
01:00 1005 29.68 834 24.63 -3.3 26 45 -13.5 7.6
01:05 1004 29.65 834 24.63 -3.3 26 46 -13.3 8.1
01:10 1004 29.65 833 24.6 -3.5 25.6 47 -13.4 8
01:15 1004 29.65 833 24.6 -3.6 25.6 47 -13.4 7.9
01:20 1004 29.65 833 24.6 -3.7 25.4 48 -13.2 8.3
01:25 1004 29.65 833 24.6 -3.7 25.3 46 -13.6 7.4
01:30 1004 29.65 833 24.6 -3.7 25.4 47 -13.5 7.7
01:35 1004 29.65 833 24.6 -3.8 25.2 46 -13.9 7
01:40 1004 29.65 833 24.6 -3.4 25.8 45 -13.6 7.4
01:45 1004 29.65 833 24.6 -3.5 25.6 46 -13.6 7.6
01:50 1004 29.65 833 24.6 -3.5 25.6 46 -13.5 7.7
01:55 1004 29.65 833 24.6 -3.6 25.5 47 -13.4 7.9
02:00 1004 29.65 833 24.6 -3.4 25.9 41 -14.8 5.4
02:05 1004 29.65 833 24.6 -3.3 26 43 -14.1 6.6
02:10 1004 29.65 833 24.6 -3.6 25.5 46 -13.8 7.2
02:15 1004 29.65 833 24.6 -3.6 25.4 46 -13.6 7.6
02:20 1004 29.65 833 24.6 -3.7 25.3 46 -13.8 7.2
02:25 1004 29.65 833 24.6 -3.8 25.2 48 -13.2 8.2
02:30 1004 29.65 833 24.6 -4.1 24.6 48 -13.5 7.8
02:35 1004 29.65 833 24.6 -4.1 24.7 48 -13.4 7.8
02:40 1004 29.65 833 24.6 -4 24.8 47 -13.7 7.4
02:45 1004 29.65 834 24.63 -3.8 25.2 47 -13.7 7.4
02:50 1004 29.65 834 24.63 -3.6 25.4 46 -13.8 7.2
02:55 1004 29.65 834 24.63 -3.5 25.7 47 -13.2 8.3
03:00 1004 29.65 834 24.63 -3.8 25.1 49 -13.1 8.5
03:05 1005 29.68 834 24.63 -4 24.8 49 -13.1 8.5
03:10 1004 29.65 834 24.63 -4 24.9 49 -13.2 8.2
03:15 1004 29.65 834 24.63 -3.8 25.1 49 -13.1 8.3
03:20 1004 29.65 833 24.6 -3.7 25.3 47 -13.5 7.8
03:25 1004 29.65 833 24.6 -3.7 25.4 47 -13.3 8
03:30 1004 29.65 833 24.6 -3.8 25.1 49 -13.2 8.3
03:35 1004 29.65 833 24.6 -3.8 25.2 47 -13.6 7.5
03:40 1004 29.65 833 24.6 -3.5 25.8 45 -13.7 7.4
03:45 1004 29.65 833 24.6 -2.9 26.8 44 -13.5 7.8
03:50 1004 29.65 833 24.6 -2.4 27.7 44 -13.2 8.3
03:55 1004 29.65 833 24.6 -2.5 27.6 45 -12.9 8.8
04:00 1004 29.65 833 24.6 -2.6 27.4 43 -13.4 7.8
04:05 1004 29.65 833 24.6 -2.5 27.6 46 -12.6 9.3
04:10 1004 29.65 833 24.6 -2.5 27.4 45 -12.8 8.9
04:15 1004 29.65 833 24.6 -2.6 27.3 44 -13.4 7.9
04:20 1004 29.65 833 24.6 -2.7 27.2 45 -13.2 8.3
04:25 1004 29.65 833 24.6 -2.7 27.1 45 -13.1 8.5
04:30 1004 29.65 833 24.6 -3.3 26.1 51 -12.1 10.2
04:35 1004 29.65 833 24.6 -4.8 23.3 56 -12.4 9.7
04:40 1003 29.62 833 24.6 -5.9 21.3 59 -12.8 9
04:45 1003 29.62 833 24.6 -7.1 19.3 61 -13.4 7.8
04:50 1003 29.62 833 24.6 -7.9 17.8 64 -13.7 7.4
04:55 1003 29.62 833 24.6 -8.4 16.9 64 -14 6.8
05:00 1003 29.62 833 24.6 -8.8 16.2 66 -14.1 6.6
05:05 1003 29.62 833 24.6 -9 15.7 68 -14 6.8
05:10 1004 29.65 833 24.6 -9.4 15.2 67 -14.4 6.1
05:15 1004 29.65 833 24.6 -9.9 14.3 68 -14.7 5.6
05:20 1004 29.65 833 24.6 -10.3 13.5 69 -14.9 5.1
05:25 1004 29.65 833 24.6 -10.8 12.6 70 -15.2 4.7
05:30 1004 29.65 833 24.6 -11.2 11.9 71 -15.4 4.2
05:35 1004 29.65 833 24.6 -11.4 11.5 72 -15.5 4.1
05:40 1004 29.65 833 24.6 -11.5 11.2 73 -15.5 4.1
05:45 1004 29.65 833 24.6 -11.6 11.2 72 -15.7 3.8
05:50 1004 29.65 833 24.6 -11.8 10.8 73 -15.6 3.8
05:55 1004 29.65 834 24.63 -12 10.4 72 -16 3.2
06:00 1005 29.68 834 24.63 -12.3 9.8 74 -16.1 3
06:05 1005 29.68 834 24.63 -12.9 8.7 74 -16.6 2
06:10 1005 29.68 834 24.63 -13.6 7.5 75 -17.1 1.3
06:15 1005 29.68 835 24.66 -13.9 7 76 -17.3 0.9
06:20 1006 29.71 835 24.66 -14.1 6.6 77 -17.4 0.7
06:25 1006 29.71 835 24.66 -14.5 5.9 76 -17.8 -0.1
06:30 1006 29.71 835 24.66 -15 5 78 -18 -0.3
06:35 1006 29.71 835 24.66 -15.4 4.2 79 -18.3 -0.9
06:40 1006 29.71 836 24.69 -15.6 4 80 -18.3 -1
06:45 1006 29.71 836 24.69 -15.6 3.8 78 -18.7 -1.6
06:50 1007 29.74 836 24.69 -15.7 3.7 78 -18.7 -1.7
06:55 1007 29.74 836 24.69 -16.1 3.1 80 -18.8 -1.9
07:00 1007 29.74 836 24.69 -16.4 2.5 78 -19.3 -2.8
07:05 1007 29.74 836 24.69 -16.7 2 80 -19.4 -2.9
07:10 1007 29.74 836 24.69 -16.8 1.9 79 -19.6 -3.2
07:15 1007 29.74 836 24.69 -16.4 2.4 79 -19.3 -2.7
07:20 1007 29.74 836 24.69 -16.1 2.9 77 -19.2 -2.6
07:25 1007 29.74 836 24.69 -16.3 2.8 78 -19.2 -2.5
07:30 1007 29.74 836 24.69 -16.4 2.6 79 -19.2 -2.6
07:35 1007 29.74 836 24.69 -16.5 2.4 80 -19.1 -2.4
07:40 1007 29.74 836 24.69 -16.4 2.5 83 -18.7 -1.6
07:45 1007 29.74 836 24.69 -16.2 2.8 83 -18.5 -1.3
07:50 1007 29.74 836 24.69 -15.9 3.3 83 -18.2 -0.7
07:55 1007 29.74 837 24.72 -15.6 4 83 -17.8 -0.1
08:00 1008 29.77 837 24.72 -15.2 4.6 82 -17.6 0.3
08:05 1008 29.77 837 24.72 -15 4.9 82 -17.4 0.7
08:10 1008 29.77 837 24.72 -14.9 5.2 82 -17.3 0.9
08:15 1008 29.77 837 24.72 -14.9 5.2 82 -17.4 0.8
08:20 1008 29.77 837 24.72 -15.1 4.9 84 -17.2 1
08:25 1008 29.77 838 24.75 -15 4.9 84 -17.2 1
08:30 1008 29.77 838 24.75 -15 5 84 -17.2 1.1
08:35 1009 29.8 838 24.75 -15.1 4.8 83 -17.4 0.6
08:40 1009 29.8 838 24.75 -15.7 3.8 83 -18 -0.4
08:45 1009 29.8 838 24.75 -16.2 2.8 83 -18.4 -1.2
08:50 1009 29.8 838 24.75 -16.5 2.4 84 -18.6 -1.5
08:55 1009 29.8 838 24.75 -16.5 2.3 82 -18.9 -2
09:00 1009 29.8 838 24.75 -16.8 1.8 84 -18.9 -2
09:05 1009 29.8 839 24.78 -16.7 1.9 82 -19.1 -2.4
09:10 1010 29.83 839 24.78 -16.8 1.7 82 -19.3 -2.7
09:15 1010 29.83 839 24.78 -17.1 1.3 82 -19.5 -3.1
09:20 1010 29.83 839 24.78 -17.1 1.2 81 -19.7 -3.4
09:25 1010 29.83 839 24.78 -17.2 1.1 82 -19.6 -3.3
09:30 1010 29.83 839 24.78 -17.3 0.9 81 -19.8 -3.7
09:35 1010 29.83 839 24.78 -17.3 0.9 82 -19.7 -3.5
09:40 1010 29.83 839 24.78 -17.3 0.8 79 -20.2 -4.3
09:45 1010 29.83 839 24.78 -17.5 0.5 81 -20 -4
09:50 1010 29.83 839 24.78 -17.5 0.6 79 -20.2 -4.4
09:55 1010 29.83 839 24.78 -17.5 0.5 79 -20.3 -4.5
10:00 1010 29.83 839 24.78 -17.6 0.4 80 -20.3 -4.5
10:05 1010 29.83 840 24.81 -17.7 0.1 80 -20.4 -4.8
10:10 1010 29.83 840 24.81 -17.8 -0.1 81 -20.4 -4.7
10:15 1011 29.85 840 24.81 -17.7 0.1 79 -20.6 -5
10:20 1011 29.85 840 24.81 -17.9 -0.2 79 -20.7 -5.3
10:25 1011 29.85 840 24.81 -18.2 -0.8 81 -20.8 -5.4
10:30 1011 29.85 840 24.81 -18.1 -0.6 82 -20.5 -5
10:35 1011 29.85 840 24.81 -18 -0.4 79 -20.8 -5.4
10:40 1011 29.85 840 24.81 -18 -0.4 80 -20.7 -5.2
10:45 1011 29.85 840 24.81 -18 -0.4 79 -20.8 -5.4
10:50 1011 29.85 840 24.81 -18.2 -0.8 79 -21 -5.8
10:55 1011 29.85 840 24.81 -18.4 -1.1 82 -20.8 -5.5
11:00 1011 29.85 840 24.81 -18.2 -0.7 79 -20.9 -5.7
11:05 1011 29.85 840 24.81 -18.1 -0.6 81 -20.7 -5.2
11:10 1011 29.85 840 24.81 -17.8 -0.1 81 -20.3 -4.6
11:15 1011 29.85 840 24.81 -17.4 0.8 78 -20.3 -4.5
11:20 1011 29.85 840 24.81 -17.5 0.5 80 -20.1 -4.3
11:25 1011 29.85 840 24.81 -17.9 -0.3 80 -20.6 -5.1
11:30 1011 29.85 840 24.81 -18.1 -0.6 80 -20.8 -5.5
11:35 1011 29.85 840 24.81 -18.2 -0.8 81 -20.7 -5.3
11:40 1011 29.85 840 24.81 -18.2 -0.8 78 -21.1 -6.1
11:45 1011 29.85 840 24.81 -18.2 -0.7 80 -20.9 -5.6
11:50 1011 29.85 840 24.81 -17.8 0 79 -20.5 -4.9
11:55 1011 29.85 840 24.81 -17.6 0.4 81 -20.2 -4.3
12:00 1011 29.85 840 24.81 -17.1 1.2 77 -20.2 -4.4
12:05 1011 29.85 840 24.81 -16.9 1.5 77 -20.1 -4.2
12:10 1011 29.85 840 24.81 -16.8 1.7 77 -19.9 -3.9
12:15 1011 29.85 840 24.81 -16.4 2.5 76 -19.7 -3.5
12:20 1011 29.85 840 24.81 -16.2 2.9 74 -19.8 -3.7
12:25 1011 29.85 840 24.81 -16.5 2.3 74 -20.1 -4.2
12:30 1011 29.85 840 24.81 -16.3 2.6 73 -20.1 -4.2
12:35 1011 29.85 840 24.81 -16.3 2.7 74 -20 -4
12:40 1011 29.85 841 24.83 -16.1 3.1 72 -20 -4
12:45 1011 29.85 841 24.83 -16.1 3 74 -19.8 -3.7
12:50 1011 29.85 841 24.83 -16.2 2.8 74 -19.8 -3.7
12:55 1011 29.85 841 24.83 -16.3 2.6 74 -19.9 -3.9
13:00 1011 29.85 840 24.81 -15.8 3.6 71 -19.9 -3.8
13:05 1011 29.85 841 24.83 -15.7 3.8 70 -20 -3.9
13:10 1011 29.85 841 24.83 -15.5 4 68 -20.2 -4.4
13:15 1011 29.85 841 24.83 -15.9 3.3 71 -20 -4
13:20 1011 29.85 841 24.83 -15.8 3.6 70 -20.1 -4.2
13:25 1011 29.85 841 24.83 -16 3.3 71 -20.2 -4.3
13:30 1011 29.85 841 24.83 -15.7 3.8 69 -20.1 -4.1
13:35 1011 29.85 841 24.83 -15.2 4.7 67 -19.9 -3.9
13:40 1011 29.85 841 24.83 -15.2 4.6 68 -19.9 -3.7
13:45 1011 29.85 841 24.83 -15.3 4.5 68 -20 -3.9
13:50 1011 29.85 841 24.83 -15.1 4.7 65 -20.3 -4.5
13:55 1011 29.85 841 24.83 -15.1 4.8 66 -20.1 -4.2
14:00 1011 29.85 841 24.83 -15.3 4.5 65 -20.4 -4.8
14:05 1011 29.85 841 24.83 -15.6 4 67 -20.3 -4.6
14:10 1011 29.85 841 24.83 -15.5 4.1 67 -20.4 -4.6
14:15 1012 29.88 841 24.83 -15.2 4.6 65 -20.4 -4.8
14:20 1012 29.88 841 24.83 -15.4 4.2 67 -20.2 -4.4
14:25 1012 29.88 841 24.83 -16 3.2 67 -20.8 -5.5
14:30 1012 29.88 841 24.83 -16.1 3.1 66 -21 -5.7
14:35 1012 29.88 841 24.83 -15.9 3.4 65 -21 -5.8
14:40 1012 29.88 841 24.83 -16 3.2 67 -20.8 -5.5
14:45 1012 29.88 841 24.83 -15.7 3.7 64 -21 -5.8
14:50 1012 29.88 841 24.83 -15.7 3.7 64 -21 -5.8
14:55 1012 29.88 841 24.83 -16.1 3.1 65 -21.1 -6
15:00 1012 29.88 841 24.83 -16.2 2.9 66 -21.1 -5.9
15:05 1012 29.88 841 24.83 -16.2 2.8 66 -21.2 -6.2
15:10 1012 29.88 842 24.86 -16.2 2.8 66 -21.2 -6.1
15:15 1012 29.88 842 24.86 -16.4 2.4 67 -21.2 -6.2
15:20 1012 29.88 842 24.86 -16.5 2.4 66 -21.4 -6.5
15:25 1012 29.88 842 24.86 -16.3 2.6 66 -21.3 -6.3
15:30 1013 29.91 842 24.86 -16.6 2.2 67 -21.4 -6.5
15:35 1013 29.91 842 24.86 -16.6 2.1 66 -21.6 -6.8
15:40 1013 29.91 842 24.86 -17.3 0.9 70 -21.6 -6.8
15:45 1013 29.91 842 24.86 -17.8 -0.1 71 -21.9 -7.3
15:50 1013 29.91 842 24.86 -18.2 -0.7 73 -21.9 -7.5
15:55 1013 29.91 842 24.86 -18.2 -0.8 73 -21.9 -7.4
16:00 1013 29.91 842 24.86 -18.2 -0.8 73 -22 -7.6
16:05 1013 29.91 842 24.86 -18.4 -1.1 74 -22 -7.5
16:10 1013 29.91 842 24.86 -18.4 -1 73 -22 -7.6
16:15 1013 29.91 842 24.86 -18.4 -1.1 74 -22 -7.6
16:20 1013 29.91 842 24.86 -18.4 -1.2 74 -21.9 -7.5
16:25 1013 29.91 842 24.86 -18.6 -1.4 75 -22 -7.6
16:30 1013 29.91 842 24.86 -18.6 -1.5 75 -22 -7.6
16:35 1013 29.91 842 24.86 -18.7 -1.6 75 -22 -7.6
16:40 1013 29.91 843 24.89 -18.8 -1.9 76 -22.1 -7.8
16:45 1013 29.91 843 24.89 -18.9 -2.1 76 -22.2 -8
16:50 1013 29.91 843 24.89 -19 -2.1 76 -22.2 -8
16:55 1013 29.91 843 24.89 -19 -2.2 74 -22.5 -8.5
17:00 1014 29.94 843 24.89 -19.2 -2.6 76 -22.4 -8.4
17:05 1013 29.91 843 24.89 -19.3 -2.7 77 -22.4 -8.4
17:10 1013 29.91 843 24.89 -19.4 -2.9 77 -22.4 -8.3
17:15 1014 29.94 843 24.89 -19.5 -3.2 77 -22.6 -8.6
17:20 1014 29.94 843 24.89 -19.4 -2.9 77 -22.4 -8.4
17:25 1014 29.94 843 24.89 -19.2 -2.6 76 -22.4 -8.4
17:30 1014 29.94 843 24.89 -19.2 -2.6 76 -22.5 -8.4
17:35 1014 29.94 843 24.89 -19.3 -2.8 76 -22.5 -8.5
17:40 1014 29.94 843 24.89 -19.2 -2.6 76 -22.5 -8.4
17:45 1014 29.94 843 24.89 -19.1 -2.5 76 -22.4 -8.3
17:50 1014 29.94 843 24.89 -19.2 -2.5 76 -22.3 -8.2
17:55 1014 29.94 843 24.89 -19.2 -2.5 76 -22.4 -8.2
18:00 1014 29.94 843 24.89 -19 -2.2 76 -22.3 -8.2
18:05 1014 29.94 843 24.89 -19 -2.2 75 -22.4 -8.2
18:10 1014 29.94 843 24.89 -19.2 -2.5 75 -22.5 -8.5
18:15 1014 29.94 843 24.89 -19.4 -2.9 76 -22.6 -8.7
18:20 1014 29.94 843 24.89 -19.5 -3.1 76 -22.7 -8.8
18:25 1014 29.94 844 24.92 -19.4 -3 76 -22.6 -8.7
18:30 1014 29.94 844 24.92 -19.4 -3 75 -22.8 -9
18:35 1015 29.97 844 24.92 -19.6 -3.3 76 -22.9 -9.2
18:40 1015 29.97 844 24.92 -19.8 -3.7 76 -23 -9.3
18:45 1015 29.97 844 24.92 -19.9 -3.9 75 -23.3 -9.9
18:50 1015 29.97 844 24.92 -20.1 -4.2 76 -23.3 -9.9
18:55 1015 29.97 844 24.92 -20.2 -4.3 76 -23.3 -10
19:00 1015 29.97 844 24.92 -20.3 -4.6 77 -23.4 -10.1
19:05 1015 29.97 844 24.92 -20.4 -4.6 76 -23.5 -10.4
19:10 1015 29.97 844 24.92 -20.5 -5 77 -23.6 -10.5
19:15 1015 29.97 844 24.92 -20.6 -5.1 77 -23.7 -10.7
19:20 1015 29.97 844 24.92 -20.7 -5.3 78 -23.6 -10.4
19:25 1015 29.97 844 24.92 -20.5 -5 77 -23.6 -10.5
19:30 1015 29.97 844 24.92 -20.4 -4.7 77 -23.4 -10.1
19:35 1015 29.97 844 24.92 -20.2 -4.4 77 -23.3 -10
19:40 1015 29.97 845 24.95 -20.2 -4.4 75 -23.5 -10.3
19:45 1015 29.97 845 24.95 -20.3 -4.5 77 -23.3 -10
19:50 1015 29.97 845 24.95 -20.3 -4.6 77 -23.4 -10.2
19:55 1015 29.97 845 24.95 -20.4 -4.7 76 -23.5 -10.4
20:00 1015 29.97 845 24.95 -20.5 -4.9 76 -23.6 -10.5
20:05 1015 29.97 845 24.95 -20.6 -5 76 -23.8 -10.8
20:10 1015 29.97 845 24.95 -20.9 -5.6 77 -23.9 -11
20:15 1015 29.97 845 24.95 -20.9 -5.6 78 -23.8 -10.9
20:20 1015 29.97 845 24.95 -20.8 -5.5 76 -24 -11.2
20:25 1015 29.97 845 24.95 -20.9 -5.7 77 -23.9 -11
20:30 1015 29.97 845 24.95 -20.9 -5.5 77 -23.9 -11
20:35 1015 29.97 845 24.95 -20.9 -5.6 77 -24 -11.2
20:40 1015 29.97 845 24.95 -20.9 -5.5 75 -24.2 -11.6
20:45 1015 29.97 845 24.95 -20.9 -5.6 76 -24.1 -11.4
20:50 1016 30 845 24.95 -20.9 -5.6 75 -24.2 -11.5
20:55 1016 30 845 24.95 -20.9 -5.6 75 -24.2 -11.5
21:00 1016 30 845 24.95 -20.9 -5.6 75 -24.2 -11.5
21:05 1016 30 845 24.95 -20.8 -5.5 76 -24.1 -11.3
21:10 1016 30 845 24.95 -20.7 -5.2 75 -24 -11.2
21:15 1016 30 845 24.95 -20.7 -5.2 75 -24 -11.2
21:20 1016 30 845 24.95 -20.8 -5.4 76 -23.9 -11
21:25 1016 30 845 24.95 -20.7 -5.2 77 -23.7 -10.7
21:30 1016 30 845 24.95 -21.1 -6 80 -23.7 -10.7
21:35 1016 30 845 24.95 -21.3 -6.3 80 -23.9 -11
21:40 1016 30 845 24.95 -21.1 -6 79 -23.9 -10.9
21:45 1016 30 845 24.95 -21.1 -5.9 77 -24.1 -11.4
21:50 1016 30 846 24.98 -21.2 -6.1 77 -24.3 -11.7
21:55 1016 30 846 24.98 -21.4 -6.6 77 -24.5 -12
22:00 1016 30 846 24.98 -21.6 -6.8 77 -24.5 -12.1
22:05 1017 30.03 846 24.98 -21.6 -6.8 78 -24.5 -12.1
22:10 1017 30.03 846 24.98 -21.6 -6.9 78 -24.5 -12.1
22:15 1017 30.03 846 24.98 -21.7 -7.1 78 -24.6 -12.2
22:20 1017 30.03 846 24.98 -21.7 -7.1 78 -24.6 -12.2
22:25 1017 30.03 846 24.98 -21.7 -7 78 -24.5 -12.2
22:30 1017 30.03 846 24.98 -21.7 -7.1 78 -24.6 -12.3
22:35 1017 30.03 846 24.98 -21.8 -7.3 78 -24.6 -12.4
22:40 1017 30.03 846 24.98 -21.8 -7.2 78 -24.7 -12.5
22:45 1017 30.03 846 24.98 -21.8 -7.3 79 -24.6 -12.2
22:50 1017 30.03 846 24.98 -21.8 -7.2 78 -24.7 -12.4
22:55 1017 30.03 846 24.98 -21.7 -7 78 -24.6 -12.3
23:00 1017 30.03 846 24.98 -21.6 -6.9 78 -24.5 -12.2
23:05 1017 30.03 846 24.98 -21.6 -6.9 78 -24.5 -12.1
23:10 1017 30.03 846 24.98 -21.6 -6.9 78 -24.5 -12.2
23:15 1017 30.03 846 24.98 -21.6 -7 78 -24.5 -12.1
23:20 1017 30.03 846 24.98 -21.7 -7.1 77 -24.8 -12.6
23:25 1017 30.03 846 24.98 -21.9 -7.4 78 -24.7 -12.5
23:30 1017 30.03 846 24.98 -22 -7.6 78 -24.9 -12.8
23:35 1017 30.03 846 24.98 -22.2 -8 80 -24.8 -12.6
23:40 1017 30.03 846 24.98 -22.2 -7.9 79 -24.8 -12.7
23:45 1017 30.03 846 24.98 -22.2 -8 80 -24.9 -12.7
23:50 1017 30.03 846 24.98 -22.3 -8.1 80 -24.8 -12.6
23:55 1017 30.03 846 24.98 -22.3 -8.2 81 -24.8 -12.6
24:00 1017 30.03 846 24.98 -22.2 -8 81 -24.6 -12.3